TimeCST,TemperatureF,Dew PointF,Humidity,Sea Level PressureIn,VisibilityMPH,Wind Direction,Wind SpeedMPH,Gust SpeedMPH,PrecipitationIn,Events,Conditions,WindDirDegrees,DateUTC
12:52 AM,21.0,15.1,78,30.13,-9999.0,West,6.9,-,N/A,,Unknown,270,2013-11-05 06:52:00
1:52 AM,21.9,15.1,75,30.14,-9999.0,WNW,12.7,-,N/A,,Unknown,290,2013-11-05 07:52:00
2:52 AM,21.0,15.1,78,30.15,-9999.0,WNW,12.7,-,N/A,,Unknown,290,2013-11-05 08:52:00
3:52 AM,18.0,14.0,84,30.17,-9999.0,West,5.8,-,N/A,,Unknown,260,2013-11-05 09:52:00
4:52 AM,18.0,14.0,84,30.19,-9999.0,WSW,6.9,-,N/A,,Unknown,250,2013-11-05 10:52:00
5:52 AM,17.1,14.0,88,30.21,-9999.0,West,8.1,-,N/A,,Unknown,260,2013-11-05 11:52:00
6:52 AM,16.0,12.9,88,30.22,-9999.0,WSW,8.1,-,N/A,,Unknown,250,2013-11-05 12:52:00
7:52 AM,17.1,14.0,88,30.22,-9999.0,West,6.9,-,N/A,,Unknown,280,2013-11-05 13:52:00
8:52 AM,21.0,16.0,81,30.23,-9999.0,West,10.4,-,N/A,,Unknown,270,2013-11-05 14:52:00
9:52 AM,25.0,17.1,72,30.25,-9999.0,West,17.3,-,N/A,,Unknown,280,2013-11-05 15:52:00
10:52 AM,28.0,18.0,66,30.25,-9999.0,West,11.5,-,N/A,,Unknown,280,2013-11-05 16:52:00
11:52 AM,30.9,19.0,61,30.24,-9999.0,West,12.7,-,N/A,,Unknown,280,2013-11-05 17:52:00
12:52 PM,34.0,19.0,54,30.21,-9999.0,WNW,11.5,-,N/A,,Unknown,290,2013-11-05 18:52:00
1:52 PM,36.0,19.0,50,30.19,-9999.0,West,11.5,-,N/A,,Unknown,280,2013-11-05 19:52:00
2:52 PM,37.0,19.0,48,30.18,-9999.0,West,11.5,-,N/A,,Unknown,280,2013-11-05 20:52:00
3:52 PM,37.0,19.0,48,30.17,-9999.0,WNW,8.1,-,N/A,,Unknown,290,2013-11-05 21:52:00
4:52 PM,36.0,19.0,50,30.17,-9999.0,Calm,Calm,-,N/A,,Unknown,0,2013-11-05 22:52:00
5:52 PM,32.0,18.0,56,30.17,-9999.0,Calm,Calm,-,N/A,,Unknown,0,2013-11-05 23:52:00
6:52 PM,27.0,18.0,69,30.18,-9999.0,Calm,Calm,-,N/A,,Unknown,0,2013-11-06 00:52:00
7:52 PM,28.9,19.0,67,30.16,-9999.0,East,3.5,-,N/A,,Unknown,100,2013-11-06 01:52:00
8:52 PM,25.0,19.9,81,30.15,-9999.0,SE,3.5,-,N/A,,Unknown,130,2013-11-06 02:52:00
9:52 PM,27.0,21.9,81,30.14,-9999.0,Calm,Calm,-,N/A,,Unknown,0,2013-11-06 03:52:00
10:52 PM,28.9,23.0,78,30.13,-9999.0,SW,3.5,-,N/A,,Unknown,220,2013-11-06 04:52:00
11:52 PM,25.0,21.0,85,30.12,-9999.0,SW,3.5,-,N/A,,Unknown,220,2013-11-06 05:52:00